Channel-Port Aux Basques, Canada
Current Conditions -  °F | °C
As of 3:00 PM on Sunday 21 Dec 2014 (Local Time) from CWZB Reporting Station
Broken Clouds Broken Clouds  
Wind Chill: 20°   Ceiling: 1700
Heat Index: 29°   Visibility: 9mi
Dew Point: 21°   Wind: 9mph
Humidity: 72%   Direction: 350°N
Pressure: 30.35"   Gusts: NA
Location:  47.57°N, 59.15°W
Report Text: CWZB 211800Z AUTO 35008KT 9SM BKN017 M02/M06 A3035 RMK SLP276 T10171062 11009 21032 WSI/SWOB
Loading
Personal Weather Stations






























Interactive Weather Map New forecast layout! Learn more

10-Day Weather Forecast

Advertisements
Track Severe Weather on mobile